sensor_id;sensor_type;location;lat;lon;timestamp;temperature;humidity
12303;DHT22;6214;48.012;7.862;2023-04-15T00:01:03;9.10;99.90
12303;DHT22;6214;48.012;7.862;2023-04-15T00:03:31;9.10;99.90
12303;DHT22;6214;48.012;7.862;2023-04-15T00:06:00;9.10;99.90
12303;DHT22;6214;48.012;7.862;2023-04-15T00:08:28;9.10;99.90
12303;DHT22;6214;48.012;7.862;2023-04-15T00:10:55;9.20;99.90
12303;DHT22;6214;48.012;7.862;2023-04-15T00:13:23;9.20;99.90
12303;DHT22;6214;48.012;7.862;2023-04-15T00:15:50;9.30;99.90
12303;DHT22;6214;48.012;7.862;2023-04-15T00:18:17;9.20;99.90
12303;DHT22;6214;48.012;7.862;2023-04-15T00:20:44;9.20;99.90
12303;DHT22;6214;48.012;7.862;2023-04-15T00:23:11;9.20;99.90
12303;DHT22;6214;48.012;7.862;2023-04-15T00:25:38;9.30;99.90
12303;DHT22;6214;48.012;7.862;2023-04-15T00:28:05;9.40;99.90
12303;DHT22;6214;48.012;7.862;2023-04-15T00:30:32;9.40;99.90
12303;DHT22;6214;48.012;7.862;2023-04-15T00:33:00;9.50;99.90
12303;DHT22;6214;48.012;7.862;2023-04-15T00:35:30;9.60;99.90
12303;DHT22;6214;48.012;7.862;2023-04-15T00:38:00;9.70;99.90
12303;DHT22;6214;48.012;7.862;2023-04-15T00:40:26;9.80;99.90
12303;DHT22;6214;48.012;7.862;2023-04-15T00:42:53;9.80;99.90
12303;DHT22;6214;48.012;7.862;2023-04-15T00:45:20;9.80;99.90
12303;DHT22;6214;48.012;7.862;2023-04-15T00:47:47;9.90;99.90
12303;DHT22;6214;48.012;7.862;2023-04-15T00:50:14;9.90;99.90
12303;DHT22;6214;48.012;7.862;2023-04-15T00:52:41;9.90;99.90
12303;DHT22;6214;48.012;7.862;2023-04-15T00:55:09;9.90;99.90
12303;DHT22;6214;48.012;7.862;2023-04-15T00:57:38;9.90;99.90
12303;DHT22;6214;48.012;7.862;2023-04-15T01:00:06;9.90;99.90
12303;DHT22;6214;48.012;7.862;2023-04-15T01:02:37;9.90;99.90
12303;DHT22;6214;48.012;7.862;2023-04-15T01:05:05;9.90;99.90
12303;DHT22;6214;48.012;7.862;2023-04-15T01:07:34;9.80;99.90
12303;DHT22;6214;48.012;7.862;2023-04-15T01:10:02;9.80;99.90
12303;DHT22;6214;48.012;7.862;2023-04-15T01:12:31;9.90;99.90
12303;DHT22;6214;48.012;7.862;2023-04-15T01:14:59;9.90;99.90
12303;DHT22;6214;48.012;7.862;2023-04-15T01:17:26;9.90;99.90
12303;DHT22;6214;48.012;7.862;2023-04-15T01:19:55;9.80;99.90
12303;DHT22;6214;48.012;7.862;2023-04-15T01:22:26;9.80;99.90
12303;DHT22;6214;48.012;7.862;2023-04-15T01:25:08;9.80;99.90
12303;DHT22;6214;48.012;7.862;2023-04-15T01:27:38;9.70;99.90
12303;DHT22;6214;48.012;7.862;2023-04-15T01:30:07;9.60;99.90
12303;DHT22;6214;48.012;7.862;2023-04-15T01:32:34;9.50;99.90
12303;DHT22;6214;48.012;7.862;2023-04-15T01:35:01;9.30;99.90
12303;DHT22;6214;48.012;7.862;2023-04-15T01:37:28;9.30;99.90
12303;DHT22;6214;48.012;7.862;2023-04-15T01:39:56;9.30;99.90
12303;DHT22;6214;48.012;7.862;2023-04-15T01:42:23;9.20;99.90
12303;DHT22;6214;48.012;7.862;2023-04-15T01:44:50;9.20;99.90
12303;DHT22;6214;48.012;7.862;2023-04-15T01:47:17;9.20;99.90
12303;DHT22;6214;48.012;7.862;2023-04-15T01:49:44;9.30;99.90
12303;DHT22;6214;48.012;7.862;2023-04-15T01:52:11;9.30;99.90
12303;DHT22;6214;48.012;7.862;2023-04-15T01:54:38;9.30;99.90
12303;DHT22;6214;48.012;7.862;2023-04-15T01:57:05;9.40;99.90
12303;DHT22;6214;48.012;7.862;2023-04-15T01:59:32;9.40;99.90
12303;DHT22;6214;48.012;7.862;2023-04-15T02:01:59;9.50;99.90
12303;DHT22;6214;48.012;7.862;2023-04-15T02:04:26;9.50;99.90
12303;DHT22;6214;48.012;7.862;2023-04-15T02:06:53;9.60;99.90
12303;DHT22;6214;48.012;7.862;2023-04-15T02:09:21;9.60;99.90
12303;DHT22;6214;48.012;7.862;2023-04-15T02:11:48;9.70;99.90
12303;DHT22;6214;48.012;7.862;2023-04-15T02:14:14;9.70;99.90
12303;DHT22;6214;48.012;7.862;2023-04-15T02:16:41;9.80;99.90
12303;DHT22;6214;48.012;7.862;2023-04-15T02:19:08;9.90;99.90
12303;DHT22;6214;48.012;7.862;2023-04-15T02:21:35;9.90;99.90
12303;DHT22;6214;48.012;7.862;2023-04-15T02:24:02;10.00;99.90
12303;DHT22;6214;48.012;7.862;2023-04-15T02:26:29;10.00;99.90
12303;DHT22;6214;48.012;7.862;2023-04-15T02:28:59;10.00;99.90
12303;DHT22;6214;48.012;7.862;2023-04-15T02:31:27;10.00;99.90
12303;DHT22;6214;48.012;7.862;2023-04-15T02:33:54;10.10;99.90
12303;DHT22;6214;48.012;7.862;2023-04-15T02:36:20;10.10;99.90
12303;DHT22;6214;48.012;7.862;2023-04-15T02:38:49;10.20;99.90
12303;DHT22;6214;48.012;7.862;2023-04-15T02:41:16;10.20;99.90
12303;DHT22;6214;48.012;7.862;2023-04-15T02:43:43;10.20;99.90
12303;DHT22;6214;48.012;7.862;2023-04-15T02:46:10;10.20;99.90
12303;DHT22;6214;48.012;7.862;2023-04-15T02:48:40;10.20;99.90
12303;DHT22;6214;48.012;7.862;2023-04-15T02:51:15;10.20;99.90
12303;DHT22;6214;48.012;7.862;2023-04-15T02:53:42;10.20;99.90
12303;DHT22;6214;48.012;7.862;2023-04-15T02:56:09;10.20;99.90
12303;DHT22;6214;48.012;7.862;2023-04-15T02:58:38;10.20;99.90
12303;DHT22;6214;48.012;7.862;2023-04-15T03:01:05;10.20;99.90
12303;DHT22;6214;48.012;7.862;2023-04-15T03:03:33;10.30;99.90
12303;DHT22;6214;48.012;7.862;2023-04-15T03:06:00;10.20;99.90
12303;DHT22;6214;48.012;7.862;2023-04-15T03:08:27;10.30;99.90
12303;DHT22;6214;48.012;7.862;2023-04-15T03:10:55;10.20;99.90
12303;DHT22;6214;48.012;7.862;2023-04-15T03:13:23;10.20;99.90
12303;DHT22;6214;48.012;7.862;2023-04-15T03:15:50;10.10;99.90
12303;DHT22;6214;48.012;7.862;2023-04-15T03:18:17;10.00;99.90
12303;DHT22;6214;48.012;7.862;2023-04-15T03:20:44;10.00;99.90
12303;DHT22;6214;48.012;7.862;2023-04-15T03:23:11;10.00;99.90
12303;DHT22;6214;48.012;7.862;2023-04-15T03:25:38;9.90;99.90
12303;DHT22;6214;48.012;7.862;2023-04-15T03:28:05;9.90;99.90
12303;DHT22;6214;48.012;7.862;2023-04-15T03:30:32;9.90;99.90
12303;DHT22;6214;48.012;7.862;2023-04-15T03:32:59;9.90;99.90
12303;DHT22;6214;48.012;7.862;2023-04-15T03:35:26;10.00;99.90
12303;DHT22;6214;48.012;7.862;2023-04-15T03:37:53;10.00;99.90
12303;DHT22;6214;48.012;7.862;2023-04-15T03:40:20;10.20;99.90
12303;DHT22;6214;48.012;7.862;2023-04-15T03:42:47;10.20;99.90
12303;DHT22;6214;48.012;7.862;2023-04-15T03:45:14;10.30;99.90
12303;DHT22;6214;48.012;7.862;2023-04-15T03:47:41;10.20;99.90
12303;DHT22;6214;48.012;7.862;2023-04-15T03:50:08;10.10;99.90
12303;DHT22;6214;48.012;7.862;2023-04-15T03:52:35;10.20;99.90
12303;DHT22;6214;48.012;7.862;2023-04-15T03:55:02;10.10;99.90
12303;DHT22;6214;48.012;7.862;2023-04-15T03:57:29;10.20;99.90
12303;DHT22;6214;48.012;7.862;2023-04-15T03:59:56;10.20;99.90
12303;DHT22;6214;48.012;7.862;2023-04-15T04:02:23;10.20;99.90
12303;DHT22;6214;48.012;7.862;2023-04-15T04:04:50;10.20;99.90
12303;DHT22;6214;48.012;7.862;2023-04-15T04:07:17;10.20;99.90
12303;DHT22;6214;48.012;7.862;2023-04-15T04:09:44;10.30;99.90
12303;DHT22;6214;48.012;7.862;2023-04-15T04:12:13;10.30;99.90
12303;DHT22;6214;48.012;7.862;2023-04-15T04:14:40;10.30;99.90
12303;DHT22;6214;48.012;7.862;2023-04-15T04:17:07;10.20;99.90
12303;DHT22;6214;48.012;7.862;2023-04-15T04:19:34;10.20;99.90
12303;DHT22;6214;48.012;7.862;2023-04-15T04:22:01;10.20;99.90
12303;DHT22;6214;48.012;7.862;2023-04-15T04:24:28;10.30;99.90
12303;DHT22;6214;48.012;7.862;2023-04-15T04:26:55;10.40;99.90
12303;DHT22;6214;48.012;7.862;2023-04-15T04:29:23;10.50;99.90
12303;DHT22;6214;48.012;7.862;2023-04-15T04:31:49;10.50;99.90
12303;DHT22;6214;48.012;7.862;2023-04-15T04:34:16;10.40;99.90
12303;DHT22;6214;48.012;7.862;2023-04-15T04:36:43;10.40;99.90
12303;DHT22;6214;48.012;7.862;2023-04-15T04:39:10;10.40;99.90
12303;DHT22;6214;48.012;7.862;2023-04-15T04:41:37;10.30;99.90
12303;DHT22;6214;48.012;7.862;2023-04-15T04:44:04;10.40;99.90
12303;DHT22;6214;48.012;7.862;2023-04-15T04:46:31;10.40;99.90
12303;DHT22;6214;48.012;7.862;2023-04-15T04:48:58;10.50;99.90
12303;DHT22;6214;48.012;7.862;2023-04-15T04:51:25;10.50;99.90
12303;DHT22;6214;48.012;7.862;2023-04-15T04:53:52;10.50;99.90
12303;DHT22;6214;48.012;7.862;2023-04-15T04:56:19;10.70;99.90
12303;DHT22;6214;48.012;7.862;2023-04-15T04:58:46;10.80;99.90
12303;DHT22;6214;48.012;7.862;2023-04-15T05:01:13;10.90;99.90
12303;DHT22;6214;48.012;7.862;2023-04-15T05:03:40;10.90;99.90
12303;DHT22;6214;48.012;7.862;2023-04-15T05:06:07;10.90;99.90
12303;DHT22;6214;48.012;7.862;2023-04-15T05:08:34;10.80;99.90
12303;DHT22;6214;48.012;7.862;2023-04-15T05:11:03;10.90;99.90
12303;DHT22;6214;48.012;7.862;2023-04-15T05:13:30;10.80;99.90
12303;DHT22;6214;48.012;7.862;2023-04-15T05:15:57;10.90;99.90
12303;DHT22;6214;48.012;7.862;2023-04-15T05:18:24;11.10;99.90
12303;DHT22;6214;48.012;7.862;2023-04-15T05:20:51;11.20;99.90
12303;DHT22;6214;48.012;7.862;2023-04-15T05:23:18;11.40;99.90
12303;DHT22;6214;48.012;7.862;2023-04-15T05:25:45;11.40;99.90
12303;DHT22;6214;48.012;7.862;2023-04-15T05:28:12;11.50;99.90
12303;DHT22;6214;48.012;7.862;2023-04-15T05:30:39;11.50;99.90
12303;DHT22;6214;48.012;7.862;2023-04-15T05:33:06;11.50;99.90
12303;DHT22;6214;48.012;7.862;2023-04-15T05:35:32;11.40;99.90
12303;DHT22;6214;48.012;7.862;2023-04-15T05:37:59;11.30;99.90
12303;DHT22;6214;48.012;7.862;2023-04-15T05:40:26;11.40;99.90
12303;DHT22;6214;48.012;7.862;2023-04-15T05:42:53;11.40;99.90
12303;DHT22;6214;48.012;7.862;2023-04-15T05:45:20;11.50;99.90
12303;DHT22;6214;48.012;7.862;2023-04-15T05:47:47;11.50;99.90
12303;DHT22;6214;48.012;7.862;2023-04-15T05:50:16;11.50;99.90
12303;DHT22;6214;48.012;7.862;2023-04-15T05:52:43;11.70;99.90
12303;DHT22;6214;48.012;7.862;2023-04-15T05:55:11;11.70;99.90
12303;DHT22;6214;48.012;7.862;2023-04-15T05:57:38;11.60;99.90
12303;DHT22;6214;48.012;7.862;2023-04-15T06:00:05;11.50;99.90
12303;DHT22;6214;48.012;7.862;2023-04-15T06:02:32;11.80;99.90
12303;DHT22;6214;48.012;7.862;2023-04-15T06:05:00;11.90;99.90
12303;DHT22;6214;48.012;7.862;2023-04-15T06:07:27;12.20;99.90
12303;DHT22;6214;48.012;7.862;2023-04-15T06:09:54;12.30;99.90
12303;DHT22;6214;48.012;7.862;2023-04-15T06:12:21;12.60;99.90
12303;DHT22;6214;48.012;7.862;2023-04-15T06:14:47;12.90;99.90
12303;DHT22;6214;48.012;7.862;2023-04-15T06:17:14;13.20;99.90
12303;DHT22;6214;48.012;7.862;2023-04-15T06:19:44;13.90;99.90
12303;DHT22;6214;48.012;7.862;2023-04-15T06:22:11;14.50;99.90
12303;DHT22;6214;48.012;7.862;2023-04-15T06:24:38;14.90;99.90
12303;DHT22;6214;48.012;7.862;2023-04-15T06:27:04;14.90;99.90
12303;DHT22;6214;48.012;7.862;2023-04-15T06:29:31;14.80;99.90
12303;DHT22;6214;48.012;7.862;2023-04-15T06:31:58;14.80;99.90
12303;DHT22;6214;48.012;7.862;2023-04-15T06:34:25;14.80;99.90
12303;DHT22;6214;48.012;7.862;2023-04-15T06:36:53;14.50;99.90
12303;DHT22;6214;48.012;7.862;2023-04-15T06:39:20;13.90;99.90
12303;DHT22;6214;48.012;7.862;2023-04-15T06:41:47;13.80;99.90
12303;DHT22;6214;48.012;7.862;2023-04-15T06:44:14;13.90;99.90
12303;DHT22;6214;48.012;7.862;2023-04-15T06:46:41;13.70;99.90
12303;DHT22;6214;48.012;7.862;2023-04-15T06:49:08;13.50;99.90
12303;DHT22;6214;48.012;7.862;2023-04-15T06:51:36;13.20;99.90
12303;DHT22;6214;48.012;7.862;2023-04-15T06:54:03;13.40;99.90
12303;DHT22;6214;48.012;7.862;2023-04-15T06:56:32;13.40;99.90
12303;DHT22;6214;48.012;7.862;2023-04-15T06:58:59;13.50;99.90
12303;DHT22;6214;48.012;7.862;2023-04-15T07:01:26;13.70;99.90
12303;DHT22;6214;48.012;7.862;2023-04-15T07:03:54;13.70;99.90
12303;DHT22;6214;48.012;7.862;2023-04-15T07:06:21;13.60;99.90
12303;DHT22;6214;48.012;7.862;2023-04-15T07:08:48;13.90;99.90
12303;DHT22;6214;48.012;7.862;2023-04-15T07:11:15;14.00;99.90
12303;DHT22;6214;48.012;7.862;2023-04-15T07:13:43;14.00;99.90
12303;DHT22;6214;48.012;7.862;2023-04-15T07:16:10;14.10;99.90
12303;DHT22;6214;48.012;7.862;2023-04-15T07:18:37;14.20;99.90
12303;DHT22;6214;48.012;7.862;2023-04-15T07:21:03;14.30;99.90
12303;DHT22;6214;48.012;7.862;2023-04-15T07:23:30;14.30;99.90
12303;DHT22;6214;48.012;7.862;2023-04-15T07:25:57;14.10;99.90
12303;DHT22;6214;48.012;7.862;2023-04-15T07:28:24;14.30;99.90
12303;DHT22;6214;48.012;7.862;2023-04-15T07:30:51;14.10;99.90
12303;DHT22;6214;48.012;7.862;2023-04-15T07:33:18;14.10;99.90
12303;DHT22;6214;48.012;7.862;2023-04-15T07:35:45;14.30;99.90
12303;DHT22;6214;48.012;7.862;2023-04-15T07:38:12;14.20;99.90
12303;DHT22;6214;48.012;7.862;2023-04-15T07:40:39;14.20;99.90
12303;DHT22;6214;48.012;7.862;2023-04-15T07:43:08;14.20;99.90
12303;DHT22;6214;48.012;7.862;2023-04-15T07:45:35;13.80;99.90
12303;DHT22;6214;48.012;7.862;2023-04-15T07:48:02;13.50;99.90
12303;DHT22;6214;48.012;7.862;2023-04-15T07:50:29;13.40;99.90
12303;DHT22;6214;48.012;7.862;2023-04-15T07:52:56;13.20;99.90
12303;DHT22;6214;48.012;7.862;2023-04-15T07:55:23;13.40;99.90
12303;DHT22;6214;48.012;7.862;2023-04-15T07:57:53;13.30;99.90
12303;DHT22;6214;48.012;7.862;2023-04-15T08:00:20;13.40;99.90
12303;DHT22;6214;48.012;7.862;2023-04-15T08:02:47;13.40;99.90
12303;DHT22;6214;48.012;7.862;2023-04-15T08:05:14;13.40;99.90
12303;DHT22;6214;48.012;7.862;2023-04-15T08:07:41;13.30;99.90
12303;DHT22;6214;48.012;7.862;2023-04-15T08:10:08;13.60;99.90
12303;DHT22;6214;48.012;7.862;2023-04-15T08:12:35;13.80;99.90
12303;DHT22;6214;48.012;7.862;2023-04-15T08:15:03;13.70;99.90
12303;DHT22;6214;48.012;7.862;2023-04-15T08:17:30;13.70;99.90
12303;DHT22;6214;48.012;7.862;2023-04-15T08:19:57;13.70;99.90
12303;DHT22;6214;48.012;7.862;2023-04-15T08:22:24;13.70;99.90
12303;DHT22;6214;48.012;7.862;2023-04-15T08:24:51;13.70;99.90
12303;DHT22;6214;48.012;7.862;2023-04-15T08:27:18;13.60;99.90
12303;DHT22;6214;48.012;7.862;2023-04-15T08:29:45;13.60;99.90
12303;DHT22;6214;48.012;7.862;2023-04-15T08:32:12;13.70;99.90
12303;DHT22;6214;48.012;7.862;2023-04-15T08:34:40;14.00;99.90
12303;DHT22;6214;48.012;7.862;2023-04-15T08:37:07;14.30;99.90
12303;DHT22;6214;48.012;7.862;2023-04-15T08:39:36;14.70;99.90
12303;DHT22;6214;48.012;7.862;2023-04-15T08:42:09;15.40;99.90
12303;DHT22;6214;48.012;7.862;2023-04-15T08:44:37;15.40;99.90
12303;DHT22;6214;48.012;7.862;2023-04-15T08:47:07;15.70;99.90
12303;DHT22;6214;48.012;7.862;2023-04-15T08:49:39;16.30;99.90
12303;DHT22;6214;48.012;7.862;2023-04-15T08:52:07;16.80;99.90
12303;DHT22;6214;48.012;7.862;2023-04-15T08:54:35;16.80;99.90
12303;DHT22;6214;48.012;7.862;2023-04-15T08:57:03;16.80;99.90
12303;DHT22;6214;48.012;7.862;2023-04-15T08:59:30;17.20;99.90
12303;DHT22;6214;48.012;7.862;2023-04-15T09:01:57;17.10;99.90
12303;DHT22;6214;48.012;7.862;2023-04-15T09:04:24;16.80;99.90
12303;DHT22;6214;48.012;7.862;2023-04-15T09:06:51;16.90;99.90
12303;DHT22;6214;48.012;7.862;2023-04-15T09:09:18;17.40;99.90
12303;DHT22;6214;48.012;7.862;2023-04-15T09:11:45;17.70;99.90
12303;DHT22;6214;48.012;7.862;2023-04-15T09:14:12;17.80;99.90
12303;DHT22;6214;48.012;7.862;2023-04-15T09:17:02;17.60;99.90
12303;DHT22;6214;48.012;7.862;2023-04-15T09:19:30;17.20;99.90
12303;DHT22;6214;48.012;7.862;2023-04-15T09:21:59;16.80;99.90
12303;DHT22;6214;48.012;7.862;2023-04-15T09:24:35;17.00;99.90
12303;DHT22;6214;48.012;7.862;2023-04-15T09:27:05;18.60;99.90
12303;DHT22;6214;48.012;7.862;2023-04-15T09:29:32;18.40;99.90
12303;DHT22;6214;48.012;7.862;2023-04-15T09:32:13;18.90;99.90
12303;DHT22;6214;48.012;7.862;2023-04-15T09:34:41;19.70;99.90
12303;DHT22;6214;48.012;7.862;2023-04-15T09:37:08;20.10;99.90
12303;DHT22;6214;48.012;7.862;2023-04-15T09:39:54;19.90;99.90
12303;DHT22;6214;48.012;7.862;2023-04-15T09:42:21;19.00;99.90
12303;DHT22;6214;48.012;7.862;2023-04-15T09:44:52;18.90;99.90
12303;DHT22;6214;48.012;7.862;2023-04-15T09:47:29;19.10;99.90
12303;DHT22;6214;48.012;7.862;2023-04-15T09:49:58;19.50;99.90
12303;DHT22;6214;48.012;7.862;2023-04-15T09:52:26;19.90;99.90
12303;DHT22;6214;48.012;7.862;2023-04-15T09:54:56;19.70;99.90
12303;DHT22;6214;48.012;7.862;2023-04-15T09:57:24;20.20;99.90
12303;DHT22;6214;48.012;7.862;2023-04-15T09:59:51;20.10;99.90
12303;DHT22;6214;48.012;7.862;2023-04-15T10:02:18;20.10;99.90
12303;DHT22;6214;48.012;7.862;2023-04-15T10:04:49;20.40;99.90
12303;DHT22;6214;48.012;7.862;2023-04-15T10:07:17;20.70;99.90
12303;DHT22;6214;48.012;7.862;2023-04-15T10:09:47;20.50;99.90
12303;DHT22;6214;48.012;7.862;2023-04-15T10:12:18;20.10;99.90
12303;DHT22;6214;48.012;7.862;2023-04-15T10:14:54;20.00;99.90
12303;DHT22;6214;48.012;7.862;2023-04-15T10:17:22;20.40;99.90
12303;DHT22;6214;48.012;7.862;2023-04-15T10:19:53;19.90;99.90
12303;DHT22;6214;48.012;7.862;2023-04-15T10:22:22;20.10;99.90
12303;DHT22;6214;48.012;7.862;2023-04-15T10:24:50;20.30;99.90
12303;DHT22;6214;48.012;7.862;2023-04-15T10:27:18;20.10;99.90
12303;DHT22;6214;48.012;7.862;2023-04-15T10:29:47;19.20;99.90
12303;DHT22;6214;48.012;7.862;2023-04-15T10:32:17;19.10;99.90
12303;DHT22;6214;48.012;7.862;2023-04-15T10:34:46;19.30;99.90
12303;DHT22;6214;48.012;7.862;2023-04-15T10:37:35;19.50;99.90
12303;DHT22;6214;48.012;7.862;2023-04-15T10:40:31;19.90;99.90
12303;DHT22;6214;48.012;7.862;2023-04-15T10:43:00;19.70;99.90
12303;DHT22;6214;48.012;7.862;2023-04-15T10:45:32;19.90;99.90
12303;DHT22;6214;48.012;7.862;2023-04-15T10:48:02;20.10;99.90
12303;DHT22;6214;48.012;7.862;2023-04-15T10:50:30;20.30;99.90
12303;DHT22;6214;48.012;7.862;2023-04-15T10:52:58;20.20;99.90
12303;DHT22;6214;48.012;7.862;2023-04-15T10:55:31;19.40;99.90
12303;DHT22;6214;48.012;7.862;2023-04-15T10:58:00;19.30;99.90
12303;DHT22;6214;48.012;7.862;2023-04-15T11:00:28;20.10;99.90
12303;DHT22;6214;48.012;7.862;2023-04-15T11:03:05;20.40;99.90
12303;DHT22;6214;48.012;7.862;2023-04-15T11:05:50;20.70;99.90
12303;DHT22;6214;48.012;7.862;2023-04-15T11:08:17;20.50;99.90
12303;DHT22;6214;48.012;7.862;2023-04-15T11:15:45;18.40;99.90
12303;DHT22;6214;48.012;7.862;2023-04-15T11:18:22;18.00;99.90
12303;DHT22;6214;48.012;7.862;2023-04-15T11:20:52;17.00;99.90
12303;DHT22;6214;48.012;7.862;2023-04-15T11:23:32;16.50;99.90
12303;DHT22;6214;48.012;7.862;2023-04-15T11:26:01;15.90;99.90
12303;DHT22;6214;48.012;7.862;2023-04-15T11:28:30;15.70;99.90
12303;DHT22;6214;48.012;7.862;2023-04-15T11:31:02;15.90;99.90
12303;DHT22;6214;48.012;7.862;2023-04-15T11:33:31;15.80;99.90
12303;DHT22;6214;48.012;7.862;2023-04-15T11:36:00;16.00;99.90
12303;DHT22;6214;48.012;7.862;2023-04-15T11:38:27;15.90;99.90
12303;DHT22;6214;48.012;7.862;2023-04-15T11:40:54;16.00;99.90
12303;DHT22;6214;48.012;7.862;2023-04-15T11:43:22;16.10;99.90
12303;DHT22;6214;48.012;7.862;2023-04-15T11:48:18;16.30;99.90
12303;DHT22;6214;48.012;7.862;2023-04-15T11:50:45;17.00;99.90
12303;DHT22;6214;48.012;7.862;2023-04-15T11:53:12;17.50;99.90
12303;DHT22;6214;48.012;7.862;2023-04-15T11:55:50;17.50;99.90
12303;DHT22;6214;48.012;7.862;2023-04-15T11:58:18;18.00;99.90
12303;DHT22;6214;48.012;7.862;2023-04-15T12:00:53;18.30;99.90
12303;DHT22;6214;48.012;7.862;2023-04-15T12:03:35;18.10;99.90
12303;DHT22;6214;48.012;7.862;2023-04-15T12:14:29;17.80;99.90
12303;DHT22;6214;48.012;7.862;2023-04-15T12:16:58;18.40;99.90
12303;DHT22;6214;48.012;7.862;2023-04-15T12:19:28;19.00;99.90
12303;DHT22;6214;48.012;7.862;2023-04-15T12:22:04;19.30;99.90
12303;DHT22;6214;48.012;7.862;2023-04-15T12:24:33;19.30;99.90
12303;DHT22;6214;48.012;7.862;2023-04-15T12:27:19;19.10;99.90
12303;DHT22;6214;48.012;7.862;2023-04-15T12:29:47;19.30;99.90
12303;DHT22;6214;48.012;7.862;2023-04-15T12:32:15;19.40;99.90
12303;DHT22;6214;48.012;7.862;2023-04-15T12:34:46;19.50;99.90
12303;DHT22;6214;48.012;7.862;2023-04-15T12:37:15;19.50;99.90
12303;DHT22;6214;48.012;7.862;2023-04-15T12:39:44;20.10;99.90
12303;DHT22;6214;48.012;7.862;2023-04-15T12:42:12;20.40;99.90
12303;DHT22;6214;48.012;7.862;2023-04-15T12:44:39;20.50;99.90
12303;DHT22;6214;48.012;7.862;2023-04-15T12:47:07;19.70;99.90
12303;DHT22;6214;48.012;7.862;2023-04-15T12:49:35;19.20;99.90
12303;DHT22;6214;48.012;7.862;2023-04-15T12:52:02;18.90;99.90
12303;DHT22;6214;48.012;7.862;2023-04-15T12:54:30;18.50;99.90
12303;DHT22;6214;48.012;7.862;2023-04-15T12:56:58;18.10;99.90
12303;DHT22;6214;48.012;7.862;2023-04-15T12:59:25;17.90;99.90
12303;DHT22;6214;48.012;7.862;2023-04-15T13:01:52;18.00;99.90
12303;DHT22;6214;48.012;7.862;2023-04-15T13:04:20;18.20;99.90
12303;DHT22;6214;48.012;7.862;2023-04-15T13:06:48;18.00;99.90
12303;DHT22;6214;48.012;7.862;2023-04-15T13:09:15;17.80;99.90
12303;DHT22;6214;48.012;7.862;2023-04-15T13:11:42;17.90;99.90
12303;DHT22;6214;48.012;7.862;2023-04-15T13:14:09;18.20;99.90
12303;DHT22;6214;48.012;7.862;2023-04-15T13:16:39;18.40;99.90
12303;DHT22;6214;48.012;7.862;2023-04-15T13:19:07;18.70;99.90
12303;DHT22;6214;48.012;7.862;2023-04-15T13:21:34;18.90;99.70
12303;DHT22;6214;48.012;7.862;2023-04-15T13:24:02;18.70;99.90
12303;DHT22;6214;48.012;7.862;2023-04-15T13:26:31;18.60;99.90
12303;DHT22;6214;48.012;7.862;2023-04-15T13:28:58;18.40;99.90
12303;DHT22;6214;48.012;7.862;2023-04-15T13:31:25;18.30;99.90
12303;DHT22;6214;48.012;7.862;2023-04-15T13:33:53;19.70;99.90
12303;DHT22;6214;48.012;7.862;2023-04-15T13:36:20;18.00;99.90
12303;DHT22;6214;48.012;7.862;2023-04-15T13:38:47;18.00;99.90
12303;DHT22;6214;48.012;7.862;2023-04-15T13:41:17;18.10;99.90
12303;DHT22;6214;48.012;7.862;2023-04-15T13:43:44;18.10;99.80
12303;DHT22;6214;48.012;7.862;2023-04-15T13:46:11;18.20;98.70
12303;DHT22;6214;48.012;7.862;2023-04-15T13:48:38;18.50;96.10
12303;DHT22;6214;48.012;7.862;2023-04-15T13:51:05;18.70;92.70
12303;DHT22;6214;48.012;7.862;2023-04-15T13:53:32;18.60;91.90
12303;DHT22;6214;48.012;7.862;2023-04-15T13:56:06;18.90;91.50
12303;DHT22;6214;48.012;7.862;2023-04-15T13:58:33;18.80;89.90
12303;DHT22;6214;48.012;7.862;2023-04-15T14:01:00;19.00;90.80
12303;DHT22;6214;48.012;7.862;2023-04-15T14:03:31;18.90;90.80
12303;DHT22;6214;48.012;7.862;2023-04-15T14:05:58;18.40;91.20
12303;DHT22;6214;48.012;7.862;2023-04-15T14:08:25;18.10;93.00
12303;DHT22;6214;48.012;7.862;2023-04-15T14:10:52;17.90;94.00
12303;DHT22;6214;48.012;7.862;2023-04-15T14:13:19;17.60;93.10
12303;DHT22;6214;48.012;7.862;2023-04-15T14:15:46;17.40;93.50
12303;DHT22;6214;48.012;7.862;2023-04-15T14:18:13;17.50;94.40
12303;DHT22;6214;48.012;7.862;2023-04-15T14:20:40;17.20;98.70
12303;DHT22;6214;48.012;7.862;2023-04-15T14:23:07;17.10;99.90
12303;DHT22;6214;48.012;7.862;2023-04-15T14:25:33;17.00;99.90
12303;DHT22;6214;48.012;7.862;2023-04-15T14:28:01;17.00;99.90
12303;DHT22;6214;48.012;7.862;2023-04-15T14:30:29;16.90;99.90
12303;DHT22;6214;48.012;7.862;2023-04-15T14:32:56;17.10;99.90
12303;DHT22;6214;48.012;7.862;2023-04-15T14:35:23;17.30;99.90
12303;DHT22;6214;48.012;7.862;2023-04-15T14:37:53;17.70;99.90
12303;DHT22;6214;48.012;7.862;2023-04-15T14:40:20;17.90;99.90
12303;DHT22;6214;48.012;7.862;2023-04-15T14:42:47;18.10;99.90
12303;DHT22;6214;48.012;7.862;2023-04-15T14:45:14;17.90;99.90
12303;DHT22;6214;48.012;7.862;2023-04-15T14:47:42;17.90;99.90
12303;DHT22;6214;48.012;7.862;2023-04-15T14:50:09;17.80;99.90
12303;DHT22;6214;48.012;7.862;2023-04-15T14:52:36;17.70;99.90
12303;DHT22;6214;48.012;7.862;2023-04-15T14:55:09;17.80;99.90
12303;DHT22;6214;48.012;7.862;2023-04-15T14:57:38;18.10;99.90
12303;DHT22;6214;48.012;7.862;2023-04-15T15:00:07;18.20;99.90
12303;DHT22;6214;48.012;7.862;2023-04-15T15:02:34;18.20;99.90
12303;DHT22;6214;48.012;7.862;2023-04-15T15:05:06;18.40;99.90
12303;DHT22;6214;48.012;7.862;2023-04-15T15:07:33;18.50;99.90
12303;DHT22;6214;48.012;7.862;2023-04-15T15:10:05;18.30;99.90
12303;DHT22;6214;48.012;7.862;2023-04-15T15:12:33;18.30;99.90
12303;DHT22;6214;48.012;7.862;2023-04-15T15:14:59;18.60;99.90
12303;DHT22;6214;48.012;7.862;2023-04-15T15:17:30;18.50;99.90
12303;DHT22;6214;48.012;7.862;2023-04-15T15:19:57;18.40;99.90
12303;DHT22;6214;48.012;7.862;2023-04-15T15:22:24;18.50;99.90
12303;DHT22;6214;48.012;7.862;2023-04-15T15:24:51;18.60;99.90
12303;DHT22;6214;48.012;7.862;2023-04-15T15:27:19;18.70;99.90
12303;DHT22;6214;48.012;7.862;2023-04-15T15:29:46;18.60;99.90
12303;DHT22;6214;48.012;7.862;2023-04-15T15:32:14;18.80;99.90
12303;DHT22;6214;48.012;7.862;2023-04-15T15:34:41;18.10;99.90
12303;DHT22;6214;48.012;7.862;2023-04-15T15:37:08;17.90;99.90
12303;DHT22;6214;48.012;7.862;2023-04-15T15:39:35;18.00;99.90
12303;DHT22;6214;48.012;7.862;2023-04-15T15:42:02;18.00;99.90
12303;DHT22;6214;48.012;7.862;2023-04-15T15:44:29;18.10;99.90
12303;DHT22;6214;48.012;7.862;2023-04-15T15:46:57;18.20;99.90
12303;DHT22;6214;48.012;7.862;2023-04-15T15:49:25;18.20;99.90
12303;DHT22;6214;48.012;7.862;2023-04-15T15:51:54;18.00;99.90
12303;DHT22;6214;48.012;7.862;2023-04-15T15:54:21;18.30;99.90
12303;DHT22;6214;48.012;7.862;2023-04-15T15:56:48;18.20;99.90
12303;DHT22;6214;48.012;7.862;2023-04-15T15:59:15;18.20;99.90
12303;DHT22;6214;48.012;7.862;2023-04-15T16:01:43;18.20;99.90
12303;DHT22;6214;48.012;7.862;2023-04-15T16:04:10;18.20;99.90
12303;DHT22;6214;48.012;7.862;2023-04-15T16:06:37;18.20;99.90
12303;DHT22;6214;48.012;7.862;2023-04-15T16:09:04;18.20;99.90